.
WxDataArchive / Data Records for 2006-10-09
2006-10-08 October 2006 2006-10-10

Data Records for Monday, 09 October 2006

Time	Temp	Chill	HIndex	Humid	Dewpt	 Wind 	HiWind	WindDir	Rain 	Barom 
-----	----	-----	------	-----	-----	------	------	-------	-----	----- 
00:00	51.9	51.9	51.9	93	49.9	0	0	---	0.00	30.113 
00:05	51.7	51.7	51.7	94	50.0	0	0	---	0.00	30.113 
00:10	51.6	51.6	51.6	94	49.9	0	0	---	0.00	30.113 
00:15	51.4	51.4	51.4	94	49.7	0	0	---	0.00	30.115 
00:20	51.3	51.3	51.3	94	49.6	0	0	---	0.00	30.115 
00:25	51.3	51.3	51.3	94	49.6	0	0	---	0.00	30.115 
00:30	51.3	51.3	51.3	94	49.6	0	0	---	0.00	30.118 
00:35	51.1	51.1	51.1	94	49.4	0	0	---	0.00	30.118 
00:40	51.1	51.1	51.1	94	49.4	0	0	---	0.00	30.118 
00:45	51.0	51.0	51.0	94	49.3	0	0	---	0.00	30.118 
00:50	50.8	50.8	50.8	94	49.1	0	0	---	0.00	30.118 
00:55	50.7	50.7	50.7	94	49.0	0	0	---	0.00	30.118 
01:00	50.5	50.5	50.5	94	48.8	0	0	---	0.00	30.119 
01:05	50.5	50.5	50.5	94	48.8	0	0	---	0.00	30.119 
01:10	50.4	50.4	50.4	94	48.7	0	0	---	0.00	30.119 
01:15	50.4	50.4	50.4	94	48.7	0	0	---	0.00	30.115 
01:20	50.4	50.4	50.4	95	49.0	0	0	---	0.00	30.115 
01:25	50.2	50.2	50.2	95	48.8	0	0	---	0.00	30.115 
01:30	50.2	50.2	50.2	95	48.8	0	0	---	0.00	30.117 
01:35	50.4	50.4	50.4	95	49.0	0	0	---	0.00	30.117 
01:40	50.2	50.2	50.2	95	48.8	0	0	---	0.00	30.117 
01:45	50.2	50.2	50.2	95	48.8	0	0	---	0.00	30.119 
01:50	50.1	50.1	50.1	95	48.7	0	0	---	0.00	30.119 
01:55	50.1	50.1	50.1	95	48.7	0	0	---	0.00	30.119 
02:00	49.9	49.9	49.9	95	48.5	0	0	---	0.00	30.118 
02:05	49.9	49.9	49.9	95	48.5	0	0	---	0.00	30.118 
02:10	49.9	49.9	49.9	95	48.5	0	0	---	0.00	30.118 
02:15	49.9	49.9	49.9	95	48.5	0	0	---	0.00	30.119 
02:20	49.8	49.8	49.8	95	48.4	0	0	---	0.00	30.119 
02:25	49.8	49.8	49.8	95	48.4	0	0	---	0.00	30.119 
02:30	49.6	49.6	49.6	95	48.2	0	0	---	0.00	30.118 
02:35	49.6	49.6	49.6	95	48.2	0	0	---	0.00	30.118 
02:40	49.6	49.6	49.6	96	48.5	0	0	---	0.00	30.118 
02:45	49.5	49.5	49.5	96	48.4	0	0	---	0.00	30.119 
02:50	49.4	49.4	49.4	95	48.0	0	0	---	0.00	30.119 
02:55	49.2	49.2	49.2	95	47.8	0	0	---	0.00	30.119 
03:00	49.2	49.2	49.2	95	47.8	0	0	---	0.00	30.121 
03:05	49.1	49.1	49.1	95	47.7	0	0	---	0.00	30.121 
03:10	49.1	49.1	49.1	96	48.0	0	0	---	0.00	30.121 
03:15	48.9	48.9	48.9	96	47.8	0	0	---	0.00	30.119 
03:20	48.9	48.9	48.9	96	47.8	0	0	---	0.00	30.119 
03:25	48.9	48.9	48.9	96	47.8	0	0	---	0.00	30.119 
03:30	48.8	48.8	48.8	96	47.7	0	0	---	0.00	30.119 
03:35	48.8	48.8	48.8	96	47.7	0	0	---	0.00	30.119 
03:40	48.6	48.6	48.6	96	47.5	0	0	---	0.00	30.119 
03:45	48.6	48.6	48.6	96	47.5	0	0	---	0.00	30.121 
03:50	48.5	48.5	48.5	96	47.4	0	0	---	0.00	30.121 
03:55	48.5	48.5	48.5	96	47.4	0	0	---	0.00	30.121 
04:00	48.3	48.3	48.3	96	47.2	0	0	---	0.00	30.124 
04:05	48.2	48.2	48.2	96	47.1	0	0	---	0.00	30.124 
04:10	48.2	48.2	48.2	96	47.1	0	0	---	0.00	30.124 
04:15	48.2	48.2	48.2	96	47.1	0	0	---	0.00	30.121 
04:20	48.2	48.2	48.2	96	47.1	0	0	---	0.00	30.121 
04:25	48.0	48.0	48.0	96	46.9	0	0	---	0.00	30.121 
04:30	48.0	48.0	48.0	96	46.9	0	0	---	0.00	30.119 
04:35	48.2	48.2	48.2	96	47.1	0	0	---	0.00	30.119 
04:40	48.2	48.2	48.2	96	47.1	0	0	---	0.00	30.119 
04:45	48.2	48.2	48.2	96	47.1	0	0	---	0.00	30.118 
04:50	48.0	48.0	48.0	96	46.9	0	0	---	0.00	30.118 
04:55	48.0	48.0	48.0	96	46.9	0	0	---	0.00	30.118 
05:00	47.9	47.9	47.9	96	46.8	0	0	---	0.00	30.116 
05:05	47.9	47.9	47.9	96	46.8	0	0	---	0.00	30.116 
05:10	47.9	47.9	47.9	96	46.8	0	0	---	0.00	30.116 
05:15	47.7	47.7	47.7	96	46.6	0	0	---	0.00	30.117 
05:20	47.6	47.6	47.6	96	46.5	0	0	---	0.00	30.117 
05:25	47.6	47.6	47.6	96	46.5	0	0	---	0.00	30.117 
05:30	47.6	47.6	47.6	96	46.5	0	0	---	0.00	30.118 
05:35	47.6	47.6	47.6	96	46.5	0	0	---	0.00	30.118 
05:40	47.6	47.6	47.6	96	46.5	0	0	---	0.00	30.118 
05:45	47.6	47.6	47.6	96	46.5	0	0	---	0.00	30.120 
05:50	47.6	47.6	47.6	96	46.5	0	0	---	0.00	30.120 
05:55	47.6	47.6	47.6	96	46.5	0	0	---	0.00	30.120 
06:00	47.6	47.6	47.6	96	46.5	0	0	---	0.00	30.121 
06:05	47.4	47.4	47.4	96	46.3	0	0	---	0.00	30.121 
06:10	47.4	47.4	47.4	96	46.3	0	0	---	0.00	30.121 
06:15	47.3	47.3	47.3	96	46.2	0	0	---	0.00	30.127 
06:20	47.3	47.3	47.3	96	46.2	0	0	---	0.00	30.127 
06:25	47.1	47.1	47.1	96	46.0	0	0	---	0.00	30.127 
06:30	47.0	47.0	47.0	96	45.9	0	0	---	0.00	30.128 
06:35	47.0	47.0	47.0	96	45.9	0	0	---	0.00	30.128 
06:40	46.8	46.8	46.8	96	45.7	0	0	---	0.00	30.128 
06:45	46.8	46.8	46.8	96	45.7	0	0	---	0.00	30.132 
06:50	46.8	46.8	46.8	96	45.7	0	0	---	0.00	30.132 
06:55	46.8	46.8	46.8	96	45.7	0	0	---	0.00	30.132 
07:00	46.7	46.7	46.7	96	45.6	0	0	---	0.00	30.137 
07:05	46.7	46.7	46.7	96	45.6	0	0	---	0.00	30.137 
07:10	46.5	46.5	46.5	96	45.4	0	0	---	0.00	30.137 
07:15	46.5	46.5	46.5	96	45.4	0	0	---	0.00	30.137 
07:20	46.5	46.5	46.5	96	45.4	0	0	---	0.00	30.137 
07:25	46.5	46.5	46.5	97	45.7	0	0	---	0.00	30.137 
07:30	46.5	46.5	46.5	97	45.7	0	0	---	0.00	30.138 
07:35	46.5	46.5	46.5	97	45.7	0	0	---	0.00	30.138 
07:40	46.4	46.4	46.4	97	45.6	0	0	---	0.00	30.138 
07:45	46.4	46.4	46.4	97	45.6	0	0	---	0.00	30.148 
07:50	46.5	46.5	46.5	97	45.7	0	0	---	0.00	30.148 
07:55	46.7	46.7	46.7	97	45.9	0	0	---	0.00	30.148 
08:00	47.0	47.0	47.0	97	46.2	0	0	---	0.00	30.146 
08:05	47.1	47.1	47.1	97	46.3	0	0	---	0.00	30.146 
08:10	47.3	47.3	47.3	97	46.5	0	0	---	0.00	30.146 
08:15	47.3	47.3	47.3	97	46.5	0	0	---	0.00	30.156 
08:20	47.6	47.6	47.6	97	46.8	0	0	---	0.00	30.156 
08:25	47.7	47.7	47.7	97	46.9	0	0	---	0.00	30.156 
08:30	48.0	48.0	48.0	97	47.2	0	0	---	0.00	30.162 
08:35	48.5	48.5	48.5	97	47.7	0	0	---	0.00	30.162 
08:40	49.1	49.1	49.1	97	48.3	0	0	---	0.00	30.162 
08:45	49.4	49.4	49.4	98	48.9	0	0	---	0.00	30.160 
08:50	49.8	49.8	49.8	98	49.3	0	0	---	0.00	30.160 
08:55	50.4	50.4	50.4	98	49.9	0	0	---	0.00	30.160 
09:00	50.8	50.8	50.8	98	50.3	0	0	---	0.00	30.160 
09:05	51.4	51.4	51.4	98	50.9	0	0	---	0.00	30.160 
09:10	52.3	52.3	52.3	98	51.8	0	0	---	0.00	30.160 
09:15	52.9	52.9	52.9	98	52.3	0	0	---	0.00	30.162 
09:20	53.5	53.5	53.5	98	52.9	0	0	---	0.00	30.162 
09:25	54.2	54.2	54.2	98	53.6	0	0	---	0.00	30.162 
09:30	54.7	54.7	54.7	98	54.1	0	0	---	0.00	30.163 
09:35	55.3	55.3	55.3	98	54.7	0	1	292	0.00	30.163 
09:40	56.0	56.0	56.0	98	55.4	0	1	292	0.00	30.163 
09:45	56.9	56.9	56.9	97	56.1	0	1	292	0.00	30.161 
09:50	57.8	57.8	57.8	94	56.1	0	1	292	0.00	30.161 
09:55	58.7	58.7	58.7	88	55.2	0	0	---	0.00	30.161 
10:00	59.5	59.5	59.5	84	54.7	0	1	292	0.00	30.164 
10:05	60.4	60.4	60.4	81	54.5	0	1	292	0.00	30.164 
10:10	61.2	61.2	61.2	79	54.6	0	1	292	0.00	30.164 
10:15	62.1	62.1	62.1	76	54.4	0	1	292	0.00	30.163 
10:20	63.1	63.1	63.1	73	54.3	0	1	292	0.00	30.163 
10:25	63.9	63.9	63.9	71	54.3	0	1	292	0.00	30.163 
10:30	64.5	64.5	64.5	70	54.5	0	1	292	0.00	30.158 
10:35	65.2	65.2	65.2	67	54.0	0	0	---	0.00	30.158 
10:40	65.8	65.8	65.8	67	54.5	0	0	---	0.00	30.158 
10:45	66.4	66.4	66.4	65	54.3	0	1	292	0.00	30.162 
10:50	67.3	67.3	67.3	64	54.7	0	0	---	0.00	30.162 
10:55	68.3	68.3	68.3	60	53.9	0	2	292	0.00	30.162 
11:00	68.6	68.6	68.6	61	54.6	0	1	292	0.00	30.160 
11:05	68.9	68.9	68.9	58	53.5	0	1	292	0.00	30.160 
11:10	69.3	69.3	69.3	59	54.3	0	0	---	0.00	30.160 
11:15	69.6	69.6	69.6	58	54.2	0	1	292	0.00	30.162 
11:20	69.9	69.9	69.9	59	54.9	0	1	292	0.00	30.162 
11:25	70.3	70.3	70.3	57	54.3	0	1	292	0.00	30.162 
11:30	70.3	70.3	70.3	57	54.3	0	1	292	0.00	30.157 
11:35	70.6	70.6	70.6	59	55.6	0	1	292	0.00	30.157 
11:40	70.8	70.8	70.8	56	54.3	0	2	292	0.00	30.157 
11:45	70.9	70.9	70.9	54	53.4	0	2	292	0.00	30.153 
11:50	71.5	71.5	71.5	52	52.9	0	2	292	0.00	30.153 
11:55	71.8	71.8	71.8	54	54.2	0	1	292	0.00	30.153 
12:00	72.1	72.1	72.1	52	53.5	0	1	292	0.00	30.152 
12:05	72.3	72.3	72.3	53	54.2	0	3	292	0.00	30.152 
12:10	72.5	72.5	72.5	55	55.4	0	2	292	0.00	30.152 
12:15	72.8	72.8	72.8	54	55.2	0	2	315	0.00	30.151 
12:20	73.0	73.0	73.0	57	56.9	0	2	315	0.00	30.151 
12:25	73.0	73.0	73.0	53	54.8	0	2	135	0.00	30.151 
12:30	73.2	73.2	73.2	53	55.0	0	2	338	0.00	30.149 
12:35	73.2	73.2	73.2	53	55.0	0	2	315	0.00	30.149 
12:40	73.2	73.2	73.2	52	54.5	0	3	315	0.00	30.149 
12:45	73.3	73.3	73.3	54	55.6	1	3	68	0.00	30.148 
12:50	73.3	73.3	73.3	52	54.6	1	2	68	0.00	30.148 
12:55	73.3	73.3	73.3	53	55.1	1	2	338	0.00	30.148 
13:00	73.5	73.5	73.5	53	55.3	0	1	338	0.00	30.145 
13:05	73.9	73.9	73.9	52	55.1	1	2	338	0.00	30.145 
13:10	74.0	74.0	74.0	51	54.7	1	3	248	0.00	30.145 
13:15	74.2	74.2	74.2	51	54.9	0	3	248	0.00	30.134 
13:20	74.0	74.0	74.0	50	54.2	1	3	248	0.00	30.134 
13:25	73.9	73.9	73.9	54	56.2	1	2	225	0.00	30.134 
13:30	74.0	74.0	74.0	54	56.3	0	1	225	0.00	30.127 
13:35	73.9	73.9	73.9	50	54.1	0	2	248	0.00	30.127 
13:40	74.2	74.2	74.2	49	53.8	0	1	248	0.00	30.127 
13:45	74.0	74.0	74.0	48	53.0	0	1	270	0.00	30.118 
13:50	74.2	74.2	74.2	52	55.4	0	2	270	0.00	30.118 
13:55	74.2	74.2	74.2	50	54.3	0	2	248	0.00	30.118 
14:00	74.2	74.2	74.2	49	53.8	0	2	248	0.00	30.115 
14:05	74.4	74.4	74.4	49	54.0	0	2	248	0.00	30.115 
14:10	74.4	74.4	74.4	48	53.4	0	1	248	0.00	30.115 
14:15	74.6	74.6	74.6	50	54.7	0	2	248	0.00	30.109 
14:20	74.6	74.6	74.6	49	54.2	1	2	248	0.00	30.109 
14:25	74.7	74.7	74.7	51	55.4	1	2	248	0.00	30.109 
14:30	74.9	74.9	74.9	51	55.5	0	1	248	0.00	30.103 
14:35	74.9	74.9	74.9	49	54.4	0	2	248	0.00	30.103 
14:40	75.1	75.1	77.7	50	55.2	1	2	248	0.00	30.103 
14:45	74.9	74.9	74.9	50	55.0	0	1	248	0.00	30.101 
14:50	74.9	74.9	74.9	47	53.3	0	2	315	0.00	30.101 
14:55	74.9	74.9	74.9	51	55.5	0	2	315	0.00	30.101 
15:00	74.7	74.7	74.7	50	54.8	1	4	68	0.00	30.097 
15:05	74.7	74.7	74.7	49	54.3	0	1	0	0.00	30.097 
15:10	74.9	74.9	74.9	50	55.0	0	1	0	0.00	30.097 
15:15	75.1	75.1	77.6	52	56.3	1	3	248	0.00	30.091 
15:20	75.3	75.3	77.7	51	55.9	0	1	248	0.00	30.091 
15:25	75.3	75.3	77.7	47	53.7	0	2	315	0.00	30.091 
15:30	75.3	75.3	77.7	48	54.2	0	1	315	0.00	30.086 
15:35	75.4	75.4	77.8	50	55.4	0	2	292	0.00	30.086 
15:40	75.8	75.8	77.9	47	54.1	0	3	292	0.00	30.086 
15:45	76.0	76.0	78.1	50	56.0	0	1	248	0.00	30.082 
15:50	76.1	76.1	78.1	47	54.4	0	1	248	0.00	30.082 
15:55	76.1	76.1	78.0	46	53.8	0	1	248	0.00	30.082 
16:00	76.0	76.0	78.0	46	53.7	0	1	248	0.00	30.075 
16:05	76.0	76.0	78.0	46	53.7	0	3	248	0.00	30.075 
16:10	76.0	76.0	78.0	47	54.3	0	2	248	0.00	30.075 
16:15	76.1	76.1	78.1	47	54.4	1	2	248	0.00	30.073 
16:20	76.0	76.0	78.0	46	53.7	1	2	270	0.00	30.073 
16:25	75.6	75.6	77.8	44	52.1	0	2	270	0.00	30.073 
16:30	75.6	75.6	77.8	45	52.7	1	2	248	0.00	30.073 
16:35	75.4	75.4	77.7	45	52.6	0	1	270	0.00	30.073 
16:40	75.3	75.3	77.7	47	53.7	0	1	270	0.00	30.073 
16:45	75.3	75.3	77.7	48	54.2	0	1	270	0.00	30.073 
16:50	75.3	75.3	77.7	48	54.2	0	1	270	0.00	30.073 
16:55	75.3	75.3	77.7	50	55.4	0	1	270	0.00	30.073 
17:00	75.3	75.3	77.7	48	54.2	0	3	158	0.00	30.073 
17:05	75.1	75.1	77.7	46	52.9	0	2	225	0.00	30.073 
17:10	75.3	75.3	77.7	46	53.1	0	2	225	0.00	30.073 
17:15	75.1	75.1	77.7	46	52.9	0	1	248	0.00	30.070 
17:20	75.1	75.1	77.7	47	53.5	0	2	248	0.00	30.070 
17:25	75.1	75.1	77.6	45	52.3	0	2	248	0.00	30.070 
17:30	74.9	74.9	74.9	47	53.3	0	2	248	0.00	30.072 
17:35	74.7	74.7	74.7	45	51.9	0	2	202	0.00	30.072 
17:40	74.6	74.6	74.6	47	53.0	0	0	---	0.00	30.072 
17:45	74.4	74.4	74.4	47	52.8	0	1	202	0.00	30.072 
17:50	74.2	74.2	74.2	46	52.1	0	1	202	0.00	30.072 
17:55	74.2	74.2	74.2	47	52.7	0	0	---	0.00	30.072 
18:00	74.0	74.0	74.0	46	51.9	0	1	202	0.00	30.072 
18:05	74.0	74.0	74.0	47	52.5	0	0	---	0.00	30.072 
18:10	74.0	74.0	74.0	46	51.9	0	1	202	0.00	30.072 
18:15	74.0	74.0	74.0	49	53.6	0	0	---	0.00	30.073 
18:20	73.9	73.9	73.9	50	54.1	0	0	---	0.00	30.073 
18:25	73.5	73.5	73.5	47	52.0	0	0	---	0.00	30.073 
18:30	73.2	73.2	73.2	49	52.9	0	0	---	0.00	30.072 
18:35	73.0	73.0	73.0	51	53.8	0	0	---	0.00	30.072 
18:40	72.7	72.7	72.7	50	53.0	0	0	---	0.00	30.072 
18:45	72.1	72.1	72.1	51	53.0	0	0	---	0.00	30.073 
18:50	71.6	71.6	71.6	53	53.5	0	0	---	0.00	30.073 
18:55	71.1	71.1	71.1	53	53.1	0	0	---	0.00	30.073 
19:00	70.4	70.4	70.4	57	54.4	0	0	---	0.00	30.074 
19:05	69.8	69.8	69.8	59	54.8	0	0	---	0.00	30.074 
19:10	69.1	69.1	69.1	61	55.1	0	1	202	0.00	30.074 
19:15	68.4	68.4	68.4	62	54.9	0	0	---	0.00	30.076 
19:20	67.8	67.8	67.8	63	54.7	0	0	---	0.00	30.076 
19:25	67.3	67.3	67.3	63	54.3	0	0	---	0.00	30.076 
19:30	66.4	66.4	66.4	66	54.7	0	0	---	0.00	30.078 
19:35	65.8	65.8	65.8	68	54.9	0	0	---	0.00	30.078 
19:40	65.3	65.3	65.3	69	54.9	0	0	---	0.00	30.078 
19:45	64.7	64.7	64.7	71	55.1	0	0	---	0.00	30.080 
19:50	64.2	64.2	64.2	71	54.6	0	0	---	0.00	30.080 
19:55	63.7	63.7	63.7	73	54.9	0	0	---	0.00	30.080 
20:00	63.2	63.2	63.2	74	54.8	0	0	---	0.00	30.080 
20:05	62.7	62.7	62.7	75	54.7	0	0	---	0.00	30.080 
20:10	62.4	62.4	62.4	75	54.4	0	0	---	0.00	30.080 
20:15	62.0	62.0	62.0	77	54.7	0	0	---	0.00	30.077 
20:20	61.6	61.6	61.6	76	54.0	0	0	---	0.00	30.077 
20:25	61.3	61.3	61.3	77	54.0	0	0	---	0.00	30.077 
20:30	61.0	61.0	61.0	77	53.7	0	0	---	0.00	30.071 
20:35	60.9	60.9	60.9	77	53.6	0	0	---	0.00	30.071 
20:40	61.0	61.0	61.0	77	53.7	0	0	---	0.00	30.071 
20:45	61.0	61.0	61.0	77	53.7	0	0	---	0.00	30.066 
20:50	60.9	60.9	60.9	77	53.6	0	0	---	0.00	30.066 
20:55	60.9	60.9	60.9	77	53.6	0	0	---	0.00	30.066 
21:00	60.7	60.7	60.7	77	53.4	0	0	---	0.00	30.067 
21:05	60.4	60.4	60.4	78	53.5	0	0	---	0.00	30.067 
21:10	60.1	60.1	60.1	78	53.2	0	0	---	0.00	30.067 
21:15	59.9	59.9	59.9	78	53.0	0	0	---	0.00	30.059 
21:20	59.6	59.6	59.6	78	52.7	0	0	---	0.00	30.059 
21:25	59.3	59.3	59.3	80	53.1	0	0	---	0.00	30.059 
21:30	59.2	59.2	59.2	80	53.0	0	0	---	0.00	30.062 
21:35	58.9	58.9	58.9	80	52.7	0	0	---	0.00	30.062 
21:40	58.7	58.7	58.7	81	52.9	0	0	---	0.00	30.062 
21:45	58.6	58.6	58.6	81	52.8	0	0	---	0.00	30.063 
21:50	58.6	58.6	58.6	79	52.1	0	1	202	0.00	30.063 
21:55	58.9	58.9	58.9	77	51.7	0	0	---	0.00	30.063 
22:00	59.3	59.3	59.3	76	51.7	0	0	---	0.00	30.070 
22:05	59.8	59.8	59.8	74	51.5	0	0	---	0.00	30.070 
22:10	60.4	60.4	60.4	72	51.3	0	0	---	0.00	30.070 
22:15	60.9	60.9	60.9	71	51.4	0	0	---	0.00	30.063 
22:20	61.2	61.2	61.2	70	51.3	0	0	---	0.00	30.063 
22:25	61.2	61.2	61.2	69	50.9	0	0	---	0.00	30.063 
22:30	61.2	61.2	61.2	69	50.9	0	0	---	0.00	30.064 
22:35	60.9	60.9	60.9	70	51.0	0	0	---	0.00	30.064 
22:40	60.7	60.7	60.7	70	50.9	0	1	202	0.00	30.064 
22:45	60.5	60.5	60.5	70	50.7	0	0	---	0.00	30.063 
22:50	60.4	60.4	60.4	70	50.6	0	0	---	0.00	30.063 
22:55	60.1	60.1	60.1	70	50.3	0	0	---	0.00	30.063 
23:00	59.9	59.9	59.9	71	50.5	0	0	---	0.00	30.066 
23:05	59.9	59.9	59.9	71	50.5	0	0	---	0.00	30.066 
23:10	59.6	59.6	59.6	71	50.2	0	0	---	0.00	30.066 
23:15	59.5	59.5	59.5	72	50.5	0	0	---	0.00	30.065 
23:20	59.2	59.2	59.2	73	50.5	0	1	202	0.00	30.065 
23:25	58.9	58.9	58.9	74	50.6	0	1	202	0.00	30.065 
23:30	58.7	58.7	58.7	75	50.8	0	0	---	0.00	30.071 
23:35	58.4	58.4	58.4	76	50.9	0	2	180	0.00	30.071 
23:40	58.3	58.3	58.3	77	51.1	0	2	180	0.00	30.071 
23:45	58.0	58.0	58.0	77	50.8	0	3	180	0.00	30.077 
23:50	57.8	57.8	57.8	78	51.0	0	1	180	0.00	30.077 
23:55	57.8	57.8	57.8	78	51.0	0	3	112	0.00	30.077 

CoCoRaHS
IN-AL-39
A2 Web Hosting
Creative Commons License
GoDaddy
Look for:

loaded 2017-12-12 14:31:17 • last modified 2010-11-18 10:43:29
Privacy PolicyDisclaimer
• wx.awcolley.com is powered by PmWiki v.2002016 •
• all content (unless otherwise noted) © 2017 A W Colley